Time;durP1;ratioP1;P1;durP2;ratioP2;P2;SDS_P1;SDS_P2;PMS_P1;PMS_P2;Temp;Humidity;BMP_temperature;BMP_pressure;BME280_temperature;BME280_humidity;BME280_pressure;Samples;Min_cycle;Max_cycle;Signal;HPM_P1;HPM_P2
2023/05/27 00:02:21;;;;;;;14.27;4.82;;;7.90;99.90;;;;;;5111741;28;20115;-62
2023/05/27 00:04:47;;;;;;;14.23;4.35;;;7.90;99.90;;;;;;5112074;28;20034;-62
2023/05/27 00:07:13;;;;;;;10.93;4.65;;;7.90;99.90;;;;;;5110386;28;20395;-62
2023/05/27 00:09:38;;;;;;;10.68;5.13;;;7.80;99.90;;;;;;5113411;28;20097;-62
2023/05/27 00:12:04;;;;;;;17.10;5.18;;;7.80;99.90;;;;;;5115543;28;20036;-62
2023/05/27 00:14:30;;;;;;;18.65;4.68;;;7.80;99.90;;;;;;5115693;28;20038;-62
2023/05/27 00:16:56;;;;;;;10.82;3.72;;;7.70;99.90;;;;;;5114799;28;20403;-62
2023/05/27 00:19:23;;;;;;;12.70;4.65;;;7.70;99.90;;;;;;5113352;28;20036;-62
2023/05/27 00:21:52;;;;;;;12.15;4.53;;;7.70;99.90;;;;;;5114712;28;20487;-62
2023/05/27 00:24:18;;;;;;;9.27;4.50;;;7.70;99.90;;;;;;5114346;28;20484;-62
2023/05/27 00:26:44;;;;;;;13.45;4.70;;;7.60;99.90;;;;;;5114982;28;20074;-62
2023/05/27 00:29:09;;;;;;;13.98;5.20;;;7.60;99.90;;;;;;5095729;28;20071;-62
2023/05/27 00:31:35;;;;;;;13.35;4.57;;;7.60;99.90;;;;;;5095102;28;20101;-62
2023/05/27 00:34:01;;;;;;;11.27;4.45;;;7.60;99.90;;;;;;5094422;28;20089;-62
2023/05/27 00:36:27;;;;;;;12.93;3.92;;;7.50;99.90;;;;;;5094565;28;20128;-62
2023/05/27 00:38:52;;;;;;;10.90;4.25;;;7.50;99.90;;;;;;5111373;28;20036;-62
2023/05/27 00:41:18;;;;;;;13.73;4.72;;;7.50;99.90;;;;;;5094268;28;20028;-62
2023/05/27 00:43:44;;;;;;;16.38;4.18;;;7.50;99.90;;;;;;5110550;28;20056;-62
2023/05/27 00:46:10;;;;;;;12.63;4.88;;;7.50;99.90;;;;;;5076708;28;20040;-62
2023/05/27 00:48:36;;;;;;;10.88;4.32;;;7.50;99.90;;;;;;5093925;28;20113;-62
2023/05/27 00:51:02;;;;;;;11.52;4.10;;;7.50;99.90;;;;;;5094989;28;20436;-62
2023/05/27 00:53:27;;;;;;;12.02;4.72;;;7.40;99.90;;;;;;5110238;28;20154;-62
2023/05/27 00:55:54;;;;;;;12.40;4.80;;;7.40;99.90;;;;;;5094307;28;20044;-60
2023/05/27 00:58:21;;;;;;;9.50;4.32;;;7.40;99.90;;;;;;5094518;28;20050;-61
2023/05/27 01:00:48;;;;;;;11.15;4.10;;;7.40;99.90;;;;;;5093456;28;20039;-61
2023/05/27 01:03:15;;;;;;;22.58;5.47;;;7.40;99.90;;;;;;5093510;28;20036;-61
2023/05/27 01:05:41;;;;;;;11.25;4.90;;;7.30;99.90;;;;;;5093232;28;20048;-61
2023/05/27 01:08:13;;;;;;;14.50;5.28;;;7.40;99.90;;;;;;5094399;28;20373;-61
2023/05/27 01:10:45;;;;;;;12.43;4.30;;;7.40;99.90;;;;;;5094575;28;20080;-61
2023/05/27 01:13:38;;;;;;;12.55;4.93;;;7.40;99.90;;;;;;5094345;28;20457;-61
2023/05/27 01:16:11;;;;;;;11.73;4.60;;;7.40;99.90;;;;;;5091824;28;20126;-61
2023/05/27 01:18:40;;;;;;;13.63;5.13;;;7.40;99.90;;;;;;5094404;28;20119;-61
2023/05/27 01:21:09;;;;;;;13.10;4.90;;;7.30;99.90;;;;;;5092004;28;20044;-61
2023/05/27 01:23:38;;;;;;;15.60;4.85;;;7.40;99.90;;;;;;5093291;28;20487;-61
2023/05/27 01:26:04;;;;;;;11.00;5.00;;;7.40;99.90;;;;;;5094306;28;20427;-61
2023/05/27 01:28:30;;;;;;;14.65;4.50;;;7.30;99.90;;;;;;5093885;28;20032;-61
2023/05/27 01:31:08;;;;;;;13.43;4.70;;;7.30;99.90;;;;;;5093666;28;20485;-61
2023/05/27 01:33:37;;;;;;;15.77;4.93;;;7.40;99.90;;;;;;5075797;28;20097;-61
2023/05/27 01:36:11;;;;;;;9.05;4.75;;;7.30;99.90;;;;;;5094198;28;20111;-62
2023/05/27 01:38:42;;;;;;;11.88;4.68;;;7.40;99.90;;;;;;5094174;28;20032;-61
2023/05/27 01:41:09;;;;;;;13.52;4.60;;;7.40;99.90;;;;;;5092875;28;20043;-61
2023/05/27 01:43:37;;;;;;;9.15;4.30;;;7.40;99.90;;;;;;5074563;28;20536;-61
2023/05/27 01:46:03;;;;;;;13.23;5.00;;;7.40;99.90;;;;;;5093969;28;20442;-61
2023/05/27 01:48:28;;;;;;;10.60;4.20;;;7.40;99.90;;;;;;5093418;28;20040;-61
2023/05/27 01:50:54;;;;;;;16.13;4.95;;;7.40;99.90;;;;;;5092169;28;20043;-61
2023/05/27 01:53:20;;;;;;;13.13;3.75;;;7.40;99.90;;;;;;5091893;28;20036;-61
2023/05/27 01:55:45;;;;;;;11.57;4.40;;;7.40;99.90;;;;;;5092738;28;20081;-61
2023/05/27 01:58:11;;;;;;;10.82;3.92;;;7.40;99.90;;;;;;5092789;28;20540;-61
2023/05/27 02:00:37;;;;;;;7.47;3.88;;;7.30;99.90;;;;;;5092430;28;20048;-60
2023/05/27 02:03:03;;;;;;;9.30;3.67;;;7.30;99.90;;;;;;5093691;28;20511;-61
2023/05/27 02:05:28;;;;;;;11.30;4.55;;;7.30;99.90;;;;;;5095069;28;20043;-60
2023/05/27 02:07:55;;;;;;;10.48;3.80;;;7.30;99.90;;;;;;5113531;28;20031;-60
2023/05/27 02:10:20;;;;;;;13.98;4.18;;;7.40;99.90;;;;;;5113214;28;20556;-61
2023/05/27 02:12:47;;;;;;;12.68;4.03;;;7.30;99.90;;;;;;5092179;28;20040;-61
2023/05/27 02:15:13;;;;;;;12.27;4.35;;;7.40;99.90;;;;;;5091999;28;20048;-61
2023/05/27 02:17:39;;;;;;;11.40;4.40;;;7.30;99.90;;;;;;5091829;28;20951;-61
2023/05/27 02:20:05;;;;;;;13.70;3.97;;;7.30;99.90;;;;;;5091197;28;20455;-61
2023/05/27 02:22:31;;;;;;;17.75;4.20;;;7.30;99.90;;;;;;5091500;28;20044;-61
2023/05/27 02:24:57;;;;;;;11.88;3.92;;;7.30;99.90;;;;;;5093393;28;20032;-61
2023/05/27 02:27:22;;;;;;;10.90;3.85;;;7.30;99.90;;;;;;5091963;28;20036;-61
2023/05/27 02:29:48;;;;;;;12.18;3.55;;;7.40;99.90;;;;;;5091817;28;20118;-60
2023/05/27 02:32:14;;;;;;;14.38;4.22;;;7.40;99.90;;;;;;5091318;28;20051;-61
2023/05/27 02:34:40;;;;;;;13.32;4.18;;;7.40;99.90;;;;;;5092030;28;20036;-61
2023/05/27 02:37:06;;;;;;;14.18;3.30;;;7.40;99.90;;;;;;5091629;28;20101;-61
2023/05/27 02:39:32;;;;;;;12.57;4.05;;;7.40;99.90;;;;;;5091049;28;20040;-61
2023/05/27 02:41:58;;;;;;;18.80;4.75;;;7.40;99.90;;;;;;5091318;28;20047;-61
2023/05/27 02:44:24;;;;;;;15.07;5.13;;;7.40;99.90;;;;;;5090788;28;20425;-61
2023/05/27 02:46:49;;;;;;;12.15;4.30;;;7.50;99.90;;;;;;5107636;28;20051;-61
2023/05/27 02:49:16;;;;;;;15.35;4.65;;;7.50;99.90;;;;;;5111607;28;20381;-61
2023/05/27 02:51:42;;;;;;;9.00;4.35;;;7.50;99.90;;;;;;5111723;28;20496;-61
2023/05/27 02:54:08;;;;;;;9.02;3.50;;;7.50;99.90;;;;;;5112451;28;20071;-61
2023/05/27 02:56:33;;;;;;;11.55;3.25;;;7.40;99.90;;;;;;5112786;28;20119;-61
2023/05/27 02:58:59;;;;;;;12.85;4.03;;;7.40;99.90;;;;;;5111759;28;20063;-61
2023/05/27 03:01:25;;;;;;;11.30;3.60;;;7.30;99.90;;;;;;5111523;28;20123;-61
2023/05/27 03:03:51;;;;;;;10.98;3.88;;;7.40;99.90;;;;;;5111669;28;20050;-61
2023/05/27 03:06:17;;;;;;;16.52;4.97;;;7.30;99.90;;;;;;5112624;28;20043;-61
2023/05/27 03:08:42;;;;;;;12.32;3.60;;;7.30;99.90;;;;;;5112041;28;20071;-61
2023/05/27 03:11:08;;;;;;;11.63;3.55;;;7.30;99.90;;;;;;5113006;28;20400;-61
2023/05/27 03:13:33;;;;;;;10.90;3.55;;;7.30;99.90;;;;;;5112240;28;20040;-61
2023/05/27 03:15:59;;;;;;;9.70;3.90;;;7.20;99.90;;;;;;5111957;28;20404;-61
2023/05/27 03:18:25;;;;;;;11.27;3.70;;;7.20;99.90;;;;;;5112160;28;20054;-61
2023/05/27 03:20:51;;;;;;;12.85;4.57;;;7.20;99.90;;;;;;5111435;28;20043;-61
2023/05/27 03:23:17;;;;;;;10.63;3.80;;;7.20;99.90;;;;;;5111844;28;20027;-61
2023/05/27 03:25:42;;;;;;;15.25;3.95;;;7.20;99.90;;;;;;5112408;28;20511;-61
2023/05/27 03:28:08;;;;;;;13.63;3.78;;;7.30;99.90;;;;;;5111242;28;20088;-61
2023/05/27 03:30:34;;;;;;;12.90;3.78;;;7.20;99.90;;;;;;5111647;28;20164;-61
2023/05/27 03:32:59;;;;;;;10.40;3.45;;;7.20;99.90;;;;;;5111679;28;20050;-61
2023/05/27 03:35:25;;;;;;;10.70;3.63;;;7.20;99.90;;;;;;5111888;28;20089;-61
2023/05/27 03:37:50;;;;;;;12.23;3.65;;;7.30;99.90;;;;;;5112019;28;20036;-61
2023/05/27 03:40:16;;;;;;;14.43;4.40;;;7.30;99.90;;;;;;5111960;28;20031;-61
2023/05/27 03:42:42;;;;;;;10.68;4.57;;;7.30;99.90;;;;;;5110761;28;20110;-62
2023/05/27 03:45:08;;;;;;;12.48;5.18;;;7.40;99.90;;;;;;5114091;28;20031;-61
2023/05/27 03:47:35;;;;;;;22.20;6.88;;;7.30;99.90;;;;;;5116323;28;20032;-61
2023/05/27 03:50:02;;;;;;;19.27;9.07;;;7.40;99.90;;;;;;5115830;28;20048;-61
2023/05/27 03:52:28;;;;;;;20.75;10.73;;;7.40;99.90;;;;;;5114808;28;20079;-61
2023/05/27 03:54:53;;;;;;;18.67;9.52;;;7.40;99.90;;;;;;5098266;28;20078;-61
2023/05/27 03:57:19;;;;;;;18.05;10.00;;;7.40;99.90;;;;;;5115398;28;20092;-61
2023/05/27 03:59:45;;;;;;;16.88;10.23;;;7.50;99.90;;;;;;5115244;28;20093;-61
2023/05/27 04:02:11;;;;;;;19.55;9.48;;;7.50;99.90;;;;;;5115975;27;20122;-61
2023/05/27 04:04:37;;;;;;;19.40;9.10;;;7.50;99.90;;;;;;5115232;28;20167;-60
2023/05/27 04:07:02;;;;;;;25.17;9.25;;;7.60;99.90;;;;;;5113661;28;20035;-60
2023/05/27 04:09:28;;;;;;;17.50;6.95;;;7.70;99.90;;;;;;5095444;28;21307;-61
2023/05/27 04:11:54;;;;;;;16.75;6.82;;;7.70;99.90;;;;;;5095081;28;20036;-61
2023/05/27 04:14:19;;;;;;;12.52;6.00;;;7.80;99.90;;;;;;5094067;28;20077;-61
2023/05/27 04:16:45;;;;;;;15.70;6.18;;;7.80;99.90;;;;;;5095555;28;20048;-60
2023/05/27 04:19:11;;;;;;;13.52;5.72;;;7.80;99.90;;;;;;5094565;28;20502;-61
2023/05/27 04:21:37;;;;;;;13.38;5.80;;;7.90;99.90;;;;;;5095541;28;20110;-61
2023/05/27 04:24:03;;;;;;;15.65;6.00;;;7.90;99.90;;;;;;5095605;28;20044;-61
2023/05/27 04:26:29;;;;;;;12.13;4.78;;;8.00;99.90;;;;;;5093062;28;20063;-60
2023/05/27 04:28:59;;;;;;;13.30;5.03;;;8.00;99.90;;;;;;5095729;28;20481;-61
2023/05/27 04:31:28;;;;;;;13.82;4.53;;;8.10;99.90;;;;;;5094944;28;20044;-61
2023/05/27 04:33:54;;;;;;;12.00;4.20;;;8.10;99.90;;;;;;5076423;28;20038;-61
2023/05/27 04:36:24;;;;;;;13.63;5.05;;;8.20;99.90;;;;;;5094757;28;20032;-61
2023/05/27 04:39:01;;;;;;;16.02;5.05;;;8.20;99.90;;;;;;5093922;28;20036;-61
2023/05/27 04:41:28;;;;;;;13.23;4.20;;;8.30;99.90;;;;;;5094191;28;20044;-60
2023/05/27 04:43:54;;;;;;;16.00;5.07;;;8.30;99.90;;;;;;5076788;28;20044;-61
2023/05/27 04:46:21;;;;;;;18.48;5.28;;;8.30;99.90;;;;;;5092754;28;20080;-61
2023/05/27 04:48:47;;;;;;;21.25;9.85;;;8.40;99.90;;;;;;5095100;28;20527;-61
2023/05/27 04:51:15;;;;;;;23.13;10.90;;;8.40;99.90;;;;;;5093639;28;20048;-61
2023/05/27 04:53:41;;;;;;;48.42;29.77;;;8.40;99.90;;;;;;5092982;28;20059;-61
2023/05/27 04:56:08;;;;;;;49.55;30.33;;;8.50;99.90;;;;;;5094697;28;20048;-61
2023/05/27 04:58:34;;;;;;;93.85;58.53;;;8.50;99.90;;;;;;5094522;28;20040;-61
2023/05/27 05:01:00;;;;;;;45.33;27.85;;;8.60;99.90;;;;;;5094295;28;20071;-61
2023/05/27 05:03:50;;;;;;;40.55;23.20;;;8.60;99.90;;;;;;5094362;28;20523;-61
2023/05/27 05:06:16;;;;;;;28.10;17.48;;;8.70;99.90;;;;;;5102420;28;20459;-61
2023/05/27 05:08:42;;;;;;;21.27;9.02;;;8.80;99.90;;;;;;5096997;28;20273;-61
2023/05/27 05:11:07;;;;;;;16.35;9.35;;;8.90;99.90;;;;;;5094489;28;20047;-62
2023/05/27 05:13:33;;;;;;;15.73;5.63;;;8.90;99.90;;;;;;5103150;28;20043;-61
2023/05/27 05:15:58;;;;;;;20.33;6.97;;;9.00;99.90;;;;;;5093500;28;20032;-61
2023/05/27 05:18:24;;;;;;;22.67;6.88;;;9.00;99.90;;;;;;5092787;28;20044;-61
2023/05/27 05:20:50;;;;;;;15.93;6.88;;;9.10;99.90;;;;;;5093271;28;20036;-61
2023/05/27 05:23:16;;;;;;;14.23;5.65;;;9.10;99.90;;;;;;5092273;28;20073;-61
2023/05/27 05:25:42;;;;;;;15.15;5.88;;;9.20;99.90;;;;;;5094928;28;20492;-61
2023/05/27 05:28:07;;;;;;;12.48;6.07;;;9.30;99.90;;;;;;5093014;28;20097;-61
2023/05/27 05:30:33;;;;;;;19.98;6.93;;;9.30;99.90;;;;;;5093461;28;20047;-61
2023/05/27 05:32:59;;;;;;;14.20;5.50;;;9.30;99.90;;;;;;5094392;28;20097;-62
2023/05/27 05:35:25;;;;;;;19.52;6.60;;;9.40;99.90;;;;;;5108057;28;20170;-61
2023/05/27 05:37:50;;;;;;;14.07;6.43;;;9.50;99.90;;;;;;5113370;28;20550;-61
2023/05/27 05:40:16;;;;;;;15.85;5.50;;;9.60;99.90;;;;;;5110935;28;20166;-61
2023/05/27 05:42:42;;;;;;;13.35;5.10;;;9.70;99.90;;;;;;5074761;28;20043;-62
2023/05/27 05:45:08;;;;;;;17.60;7.28;;;9.80;99.90;;;;;;5107240;28;20046;-61
2023/05/27 05:47:33;;;;;;;14.18;6.03;;;10.00;99.90;;;;;;5114090;27;20071;-61
2023/05/27 05:49:59;;;;;;;12.98;4.78;;;10.10;99.90;;;;;;5113679;28;20043;-61
2023/05/27 05:52:25;;;;;;;14.50;5.95;;;10.20;99.90;;;;;;5113628;28;20047;-61
2023/05/27 05:54:51;;;;;;;16.48;5.60;;;10.30;99.90;;;;;;5101564;28;20040;-61
2023/05/27 05:57:17;;;;;;;11.32;4.65;;;10.40;99.90;;;;;;5074492;28;20078;-61
2023/05/27 05:59:42;;;;;;;16.10;8.18;;;10.60;99.90;;;;;;5092290;28;20032;-61
2023/05/27 06:02:08;;;;;;;15.40;7.28;;;10.80;99.90;;;;;;5093818;28;20086;-61
2023/05/27 06:04:33;;;;;;;11.75;5.18;;;10.90;99.90;;;;;;5092498;28;20400;-61
2023/05/27 06:06:59;;;;;;;16.55;6.40;;;11.00;99.90;;;;;;5091511;28;20055;-61
2023/05/27 06:09:25;;;;;;;17.00;5.55;;;11.00;99.90;;;;;;5091707;28;20048;-62
2023/05/27 06:11:51;;;;;;;15.52;6.18;;;11.10;99.90;;;;;;5093029;28;20735;-61
2023/05/27 06:14:17;;;;;;;14.95;4.90;;;11.20;99.90;;;;;;5094434;28;20044;-62
2023/05/27 06:16:43;;;;;;;16.02;6.07;;;11.40;99.90;;;;;;5074891;28;20131;-61
2023/05/27 06:19:09;;;;;;;11.63;5.28;;;11.50;99.90;;;;;;5091052;28;20044;-62
2023/05/27 06:21:35;;;;;;;17.05;6.35;;;11.60;99.90;;;;;;5102462;28;20456;-62
2023/05/27 06:24:01;;;;;;;13.80;4.85;;;11.80;99.90;;;;;;5093305;27;20040;-62
2023/05/27 06:26:29;;;;;;;15.55;6.22;;;11.80;99.90;;;;;;5098828;28;20099;-62
2023/05/27 06:28:55;;;;;;;23.88;10.50;;;11.90;99.90;;;;;;5080979;28;20048;-61
2023/05/27 06:31:20;;;;;;;18.63;7.57;;;11.90;99.90;;;;;;5091372;28;20169;-61
2023/05/27 06:33:46;;;;;;;27.27;13.32;;;11.90;99.90;;;;;;5092399;28;20043;-61
2023/05/27 06:36:12;;;;;;;17.58;6.70;;;11.90;99.90;;;;;;5092723;28;20051;-64
2023/05/27 06:38:37;;;;;;;16.05;5.88;;;12.00;99.90;;;;;;5090609;28;20044;-62
2023/05/27 06:41:03;;;;;;;35.78;22.77;;;12.10;99.90;;;;;;5109504;28;20400;-66
2023/05/27 06:43:29;;;;;;;18.77;7.07;;;12.20;99.90;;;;;;5108736;28;20134;-63
2023/05/27 06:45:55;;;;;;;28.88;17.77;;;12.20;99.90;;;;;;5106764;28;20520;-62
2023/05/27 06:48:20;;;;;;;21.02;9.48;;;12.30;99.90;;;;;;5109011;28;20055;-61
2023/05/27 06:50:46;;;;;;;45.53;25.10;;;12.30;99.90;;;;;;5108820;28;20549;-61
2023/05/27 06:53:13;;;;;;;36.90;22.00;;;12.30;99.90;;;;;;5108174;28;20039;-62
2023/05/27 06:55:38;;;;;;;23.45;14.25;;;12.30;99.90;;;;;;5106736;28;20194;-61
2023/05/27 06:58:04;;;;;;;13.52;7.13;;;12.30;99.90;;;;;;5109184;28;20043;-60
2023/05/27 07:00:30;;;;;;;14.27;5.22;;;12.30;99.90;;;;;;5107512;28;20042;-60
2023/05/27 07:02:55;;;;;;;15.50;5.60;;;12.30;99.90;;;;;;5110100;28;20369;-60
2023/05/27 07:05:21;;;;;;;14.80;4.70;;;12.30;99.90;;;;;;5091176;28;20078;-61
2023/05/27 07:07:47;;;;;;;15.75;4.10;;;12.40;99.90;;;;;;5100896;28;20036;-61
2023/05/27 07:10:13;;;;;;;15.85;4.72;;;12.50;99.90;;;;;;5097884;28;20047;-62
2023/05/27 07:12:39;;;;;;;13.43;5.43;;;12.50;99.90;;;;;;5083811;28;20046;-61
2023/05/27 07:15:06;;;;;;;13.68;5.03;;;12.60;99.90;;;;;;5109664;28;20036;-62
2023/05/27 07:17:31;;;;;;;14.15;4.20;;;12.60;99.90;;;;;;5088807;28;20153;-61
2023/05/27 07:19:57;;;;;;;18.27;4.60;;;12.60;99.90;;;;;;5088845;28;20425;-61
2023/05/27 07:22:23;;;;;;;18.65;4.57;;;12.60;99.90;;;;;;5095288;28;20101;-62
2023/05/27 07:24:49;;;;;;;13.18;4.32;;;12.70;99.90;;;;;;5105988;28;20472;-61
2023/05/27 07:27:16;;;;;;;10.32;4.25;;;12.80;99.90;;;;;;5097279;28;20102;-61
2023/05/27 07:29:41;;;;;;;11.38;4.85;;;12.90;99.90;;;;;;5089568;28;20043;-61
2023/05/27 07:32:07;;;;;;;12.13;4.93;;;13.00;99.90;;;;;;5109353;28;20450;-61
2023/05/27 07:34:33;;;;;;;11.30;4.03;;;13.10;99.90;;;;;;5104127;28;20122;-61
2023/05/27 07:36:59;;;;;;;16.05;6.30;;;13.20;99.90;;;;;;5101848;28;20469;-61
2023/05/27 07:39:24;;;;;;;13.55;4.90;;;13.20;99.90;;;;;;5110120;28;20118;-61
2023/05/27 07:41:50;;;;;;;14.10;4.35;;;13.20;99.90;;;;;;5107609;27;20093;-61
2023/05/27 07:44:17;;;;;;;12.75;4.40;;;13.10;99.90;;;;;;5106281;28;20507;-60
2023/05/27 07:46:43;;;;;;;16.23;5.50;;;13.10;99.90;;;;;;5105512;28;20144;-61
2023/05/27 07:49:09;;;;;;;19.20;5.43;;;13.30;99.90;;;;;;5100793;28;20727;-61
2023/05/27 07:51:35;;;;;;;14.68;5.47;;;13.50;99.90;;;;;;5108061;28;20544;-61
2023/05/27 07:54:01;;;;;;;11.70;4.57;;;13.70;99.90;;;;;;5110265;28;20123;-61
2023/05/27 07:56:27;;;;;;;16.77;5.30;;;13.80;99.90;;;;;;5106980;28;20127;-60
2023/05/27 07:58:53;;;;;;;16.08;5.30;;;13.60;99.90;;;;;;5102070;28;20043;-60
2023/05/27 08:01:18;;;;;;;16.83;4.72;;;13.60;99.90;;;;;;5105459;28;20046;-61
2023/05/27 08:03:44;;;;;;;15.02;5.43;;;13.50;99.90;;;;;;5089710;28;20050;-60
2023/05/27 08:06:10;;;;;;;13.68;4.60;;;13.40;99.90;;;;;;5102308;28;20140;-60
2023/05/27 08:08:36;;;;;;;13.82;4.63;;;13.50;99.90;;;;;;5101240;28;20451;-60
2023/05/27 08:11:01;;;;;;;13.35;6.00;;;13.60;99.90;;;;;;5075199;28;20048;-60
2023/05/27 08:13:27;;;;;;;11.63;5.18;;;13.60;99.90;;;;;;5094468;28;20128;-61
2023/05/27 08:15:52;;;;;;;13.88;5.72;;;13.70;99.90;;;;;;5096133;28;20071;-62
2023/05/27 08:18:18;;;;;;;14.63;5.40;;;13.80;99.90;;;;;;5107415;28;20036;-61
2023/05/27 08:20:44;;;;;;;17.10;5.47;;;13.90;99.90;;;;;;5109339;28;20442;-61
2023/05/27 08:23:10;;;;;;;12.43;5.28;;;13.90;99.90;;;;;;5108312;28;20132;-62
2023/05/27 08:25:36;;;;;;;12.35;5.80;;;14.00;99.90;;;;;;5105138;28;20051;-62
2023/05/27 08:28:01;;;;;;;16.42;5.53;;;14.10;99.90;;;;;;5096021;28;20039;-60
2023/05/27 08:30:28;;;;;;;14.85;5.57;;;14.00;99.90;;;;;;5097026;28;20107;-61
2023/05/27 08:32:55;;;;;;;14.57;5.28;;;14.00;99.90;;;;;;5098459;28;20104;-60
2023/05/27 08:35:21;;;;;;;15.45;5.32;;;14.10;99.90;;;;;;5101561;28;20052;-61
2023/05/27 08:37:47;;;;;;;12.90;5.68;;;14.20;99.90;;;;;;5092538;28;20385;-60
2023/05/27 08:40:14;;;;;;;12.55;4.45;;;14.20;99.90;;;;;;5103503;28;20046;-60
2023/05/27 08:42:41;;;;;;;10.95;5.10;;;14.40;99.90;;;;;;5094749;28;20081;-61
2023/05/27 08:45:08;;;;;;;15.35;5.43;;;14.40;99.90;;;;;;5101473;28;20058;-60
2023/05/27 08:47:33;;;;;;;15.30;5.82;;;14.40;99.90;;;;;;5105783;28;20084;-60
2023/05/27 08:50:01;;;;;;;11.93;4.97;;;14.30;99.90;;;;;;5107581;28;20048;-60
2023/05/27 08:52:28;;;;;;;17.50;5.40;;;14.40;99.90;;;;;;5103502;28;20052;-62
2023/05/27 08:54:58;;;;;;;15.10;5.43;;;14.60;99.90;;;;;;5093433;28;20074;-60
2023/05/27 08:57:35;;;;;;;13.27;5.13;;;14.70;99.90;;;;;;5095010;28;20047;-60
2023/05/27 09:00:01;;;;;;;18.48;5.65;;;14.80;99.90;;;;;;5094206;28;20039;-60
2023/05/27 09:02:28;;;;;;;14.02;5.53;;;14.90;99.90;;;;;;5094329;28;20078;-60
2023/05/27 09:04:53;;;;;;;18.30;5.95;;;14.90;99.90;;;;;;5098736;28;20028;-59
2023/05/27 09:07:22;;;;;;;13.48;5.25;;;14.90;99.90;;;;;;5112611;28;20040;-59
2023/05/27 09:09:56;;;;;;;15.07;5.25;;;14.90;99.90;;;;;;5113727;28;20047;-60
2023/05/27 09:12:24;;;;;;;14.20;6.27;;;15.00;99.90;;;;;;5113564;28;20078;-60
2023/05/27 09:14:51;;;;;;;18.33;5.50;;;15.00;99.90;;;;;;5096739;28;20281;-60
2023/05/27 09:17:17;;;;;;;14.52;5.45;;;14.80;99.90;;;;;;5106868;28;20044;-60
2023/05/27 09:19:45;;;;;;;12.00;5.45;;;14.80;99.90;;;;;;5102550;28;20076;-63
2023/05/27 09:22:23;;;;;;;16.95;5.43;;;14.80;99.90;;;;;;5100336;28;20040;-63
2023/05/27 09:24:49;;;;;;;13.93;5.90;;;14.80;99.90;;;;;;5098284;28;20036;-62
2023/05/27 09:27:16;;;;;;;14.60;5.28;;;14.90;99.90;;;;;;5110734;28;20105;-63
2023/05/27 09:29:42;;;;;;;17.63;6.25;;;15.10;99.90;;;;;;5082310;28;20065;-62
2023/05/27 09:32:08;;;;;;;15.95;5.55;;;15.30;99.90;;;;;;5103056;28;20028;-63
2023/05/27 09:34:40;;;;;;;17.02;5.03;;;15.40;99.90;;;;;;5095279;28;20044;-60
2023/05/27 09:37:13;;;;;;;17.00;7.20;;;15.60;99.90;;;;;;5092196;28;20161;-60
2023/05/27 09:39:39;;;;;;;15.00;6.35;;;15.70;99.90;;;;;;5108367;28;20500;-60
2023/05/27 09:42:05;;;;;;;19.80;6.78;;;15.80;99.90;;;;;;5104301;28;20574;-59
2023/05/27 09:44:40;;;;;;;14.68;5.60;;;15.80;99.90;;;;;;5106361;28;20044;-60
2023/05/27 09:47:09;;;;;;;15.57;6.32;;;16.00;99.90;;;;;;5093082;28;20441;-60
2023/05/27 09:49:37;;;;;;;13.68;6.05;;;16.20;99.90;;;;;;5090802;28;20119;-60
2023/05/27 09:52:05;;;;;;;14.40;5.50;;;16.20;99.90;;;;;;5091849;28;20113;-60
2023/05/27 09:54:32;;;;;;;15.27;6.13;;;16.00;99.90;;;;;;5109993;28;20097;-60
2023/05/27 09:56:59;;;;;;;14.57;6.22;;;15.90;99.90;;;;;;5105910;28;20040;-59
2023/05/27 09:59:25;;;;;;;12.40;6.45;;;15.80;99.90;;;;;;5097261;28;20055;-59
2023/05/27 10:01:51;;;;;;;20.20;6.80;;;15.90;99.90;;;;;;5108465;28;20117;-59
2023/05/27 10:04:17;;;;;;;17.33;5.55;;;16.00;99.90;;;;;;5107741;28;20044;-60
2023/05/27 10:06:47;;;;;;;15.88;6.18;;;16.00;99.90;;;;;;5088904;28;20050;-60
2023/05/27 10:09:13;;;;;;;20.10;6.53;;;16.10;99.90;;;;;;5072731;28;20095;-60
2023/05/27 10:11:40;;;;;;;15.65;5.95;;;16.00;99.90;;;;;;5101296;28;20062;-60
2023/05/27 10:14:06;;;;;;;18.83;6.68;;;16.10;99.90;;;;;;5103362;28;20046;-60
2023/05/27 10:16:34;;;;;;;14.13;5.72;;;16.20;99.90;;;;;;5099609;28;20043;-62
2023/05/27 10:19:00;;;;;;;19.25;7.18;;;16.30;99.90;;;;;;5081853;28;20039;-60
2023/05/27 10:21:28;;;;;;;16.25;6.35;;;16.60;99.90;;;;;;5113239;28;20473;-62
2023/05/27 10:24:02;;;;;;;21.05;8.30;;;16.90;99.90;;;;;;5103537;28;20069;-66
2023/05/27 10:26:41;;;;;;;15.88;6.13;;;17.10;99.90;;;;;;5093982;28;20123;-66
2023/05/27 10:29:09;;;;;;;16.13;6.75;;;17.20;99.90;;;;;;5094280;28;20032;-66
2023/05/27 10:31:37;;;;;;;13.05;5.97;;;17.40;99.90;;;;;;5101228;28;20071;-67
2023/05/27 10:34:08;;;;;;;15.70;6.88;;;17.30;99.90;;;;;;5113599;28;20047;-67
2023/05/27 10:36:36;;;;;;;14.15;6.50;;;17.20;99.90;;;;;;5110061;28;20476;-67
2023/05/27 10:39:05;;;;;;;15.77;5.80;;;17.20;99.90;;;;;;5112872;28;20111;-66
2023/05/27 10:41:50;;;;;;;14.85;5.97;;;17.20;99.90;;;;;;5082497;28;20477;-66
2023/05/27 10:44:41;;;;;;;16.17;6.32;;;17.30;99.90;;;;;;5091062;28;20052;-64
2023/05/27 10:47:11;;;;;;;19.08;6.60;;;17.30;99.90;;;;;;5108403;28;20071;-64
2023/05/27 10:49:39;;;;;;;17.08;6.88;;;17.40;99.90;;;;;;5097806;28;20044;-63
2023/05/27 10:52:17;;;;;;;15.00;7.00;;;17.30;99.90;;;;;;5093141;28;20090;-63
2023/05/27 10:54:47;;;;;;;14.95;6.63;;;17.30;99.90;;;;;;5075175;28;20446;-63
2023/05/27 10:57:13;;;;;;;14.23;6.40;;;17.30;99.90;;;;;;5092615;28;20376;-62
2023/05/27 10:59:57;;;;;;;16.23;6.70;;;17.30;99.90;;;;;;5092391;28;20508;-60
2023/05/27 11:02:24;;;;;;;17.55;7.13;;;17.40;99.90;;;;;;5096254;28;20040;-63
2023/05/27 11:04:50;;;;;;;14.77;6.22;;;17.50;99.90;;;;;;5102195;28;20085;-62
2023/05/27 11:07:20;;;;;;;13.32;6.30;;;17.70;99.90;;;;;;5112237;28;20111;-62
2023/05/27 11:09:51;;;;;;;14.18;6.88;;;17.80;99.90;;;;;;5113291;28;20441;-61
2023/05/27 11:12:18;;;;;;;16.88;6.50;;;17.90;99.90;;;;;;5112776;28;20043;-60
2023/05/27 11:14:45;;;;;;;16.60;7.13;;;17.90;99.90;;;;;;5110702;28;20039;-61
2023/05/27 11:17:12;;;;;;;16.40;6.95;;;17.90;99.90;;;;;;5112576;28;20044;-61
2023/05/27 11:19:42;;;;;;;13.13;6.57;;;17.90;99.90;;;;;;5111648;28;20429;-60
2023/05/27 11:22:08;;;;;;;13.20;5.95;;;17.80;99.90;;;;;;5111956;28;20031;-60
2023/05/27 11:24:36;;;;;;;13.02;5.68;;;17.80;99.90;;;;;;5111131;28;20036;-60
2023/05/27 11:27:08;;;;;;;15.88;7.10;;;18.00;99.90;;;;;;5112575;28;20454;-61
2023/05/27 11:29:33;;;;;;;15.10;6.93;;;18.20;99.90;;;;;;5112389;28;20480;-60
2023/05/27 11:31:59;;;;;;;17.10;7.28;;;18.20;99.90;;;;;;5111351;28;20036;-60
2023/05/27 11:34:27;;;;;;;12.13;5.82;;;18.40;99.90;;;;;;5111097;28;20043;-61
2023/05/27 11:36:53;;;;;;;16.33;6.07;;;18.50;99.90;;;;;;5111392;28;20113;-61
2023/05/27 11:39:19;;;;;;;17.17;6.07;;;18.50;99.90;;;;;;5111051;28;20036;-63
2023/05/27 11:41:52;;;;;;;19.45;7.38;;;18.50;99.90;;;;;;5111752;28;20039;-61
2023/05/27 11:44:23;;;;;;;16.20;6.68;;;18.50;99.90;;;;;;5112242;28;20404;-62
2023/05/27 11:46:50;;;;;;;15.70;6.50;;;18.30;99.90;;;;;;5111343;28;20448;-61
2023/05/27 11:49:18;;;;;;;15.60;5.88;;;18.30;99.90;;;;;;5111674;28;20075;-61
2023/05/27 11:51:49;;;;;;;16.23;6.97;;;18.30;99.90;;;;;;5110903;28;20547;-61
2023/05/27 11:54:22;;;;;;;13.63;7.47;;;18.30;99.90;;;;;;5112090;28;20055;-61
2023/05/27 11:56:48;;;;;;;16.38;6.57;;;18.40;99.90;;;;;;5111592;28;20036;-61
2023/05/27 11:59:14;;;;;;;15.73;6.93;;;18.40;99.90;;;;;;5112148;28;20035;-61
2023/05/27 12:01:41;;;;;;;14.68;6.80;;;18.60;99.90;;;;;;5112042;28;20044;-61
2023/05/27 12:04:07;;;;;;;13.95;5.80;;;18.70;99.90;;;;;;5111924;28;20032;-61
2023/05/27 12:06:32;;;;;;;12.80;5.43;;;18.70;99.90;;;;;;5114584;28;20548;-61
2023/05/27 12:08:58;;;;;;;14.65;5.90;;;18.80;99.90;;;;;;5115049;28;20051;-61
2023/05/27 12:11:24;;;;;;;13.30;6.95;;;18.90;99.90;;;;;;5114801;28;20039;-62
2023/05/27 12:13:52;;;;;;;14.23;5.95;;;18.80;99.90;;;;;;5116169;28;20062;-61
2023/05/27 12:16:18;;;;;;;19.45;6.60;;;18.80;99.90;;;;;;5114148;28;20055;-61
2023/05/27 12:18:45;;;;;;;12.48;4.97;;;18.70;99.90;;;;;;5116076;28;20480;-62
2023/05/27 12:21:10;;;;;;;13.90;5.82;;;18.70;99.90;;;;;;5114663;28;20480;-63
2023/05/27 12:23:36;;;;;;;12.50;5.78;;;18.50;99.90;;;;;;5114983;28;20111;-63
2023/05/27 12:26:02;;;;;;;14.95;5.43;;;18.50;99.90;;;;;;5114568;28;20043;-63
2023/05/27 12:28:28;;;;;;;10.98;5.32;;;18.50;99.90;;;;;;5114164;28;20043;-63
2023/05/27 12:30:53;;;;;;;18.33;6.78;;;18.50;99.90;;;;;;5114304;28;20073;-63
2023/05/27 12:33:20;;;;;;;15.82;6.60;;;18.60;99.90;;;;;;5115838;28;20119;-63
2023/05/27 12:35:46;;;;;;;14.18;6.20;;;18.60;99.90;;;;;;5114813;28;20141;-61
2023/05/27 12:38:11;;;;;;;15.80;6.07;;;18.60;99.90;;;;;;5113265;28;20434;-61
2023/05/27 12:40:37;;;;;;;13.35;4.97;;;18.60;99.90;;;;;;5115426;28;20036;-62